Sand Point, AK

6:35 PM AKST on November 22, 2014 (GMT -0900)
Sand Point | Change Station
CLOSE
Current Station
Airport
Location: Sand Point,
Elevation: 23 ft
Nearby Weather Stations

Elev 23 ft 55.31 °N, 160.52 °W | Updated 19 minutes ago

Mostly Cloudy
Mostly Cloudy
43 °F
Feels Like 43 °F
N
0
Wind Variable Wind from North

Today
High -- | Low -- °F
--% Chance of Precip.
Yesterday
High -- | Low -- °F
Precip. -- in
9:29 AM 5:26 PM
New Moon, 0% visible
Pressure 28.87 in
Visibility 10.0 miles
Clouds Few 1400 ft
Scattered Clouds 1900 ft
Mostly Cloudy 2500 ft
Dew Point 43 °F
Humidity 100%
Rainfall 0.28 in
Snow Depth Not available.
UV 0 out of 12
Pollen Not available.
Air Quality Not available.
Flu Activity Not available.
METAR PASD 230316Z 00000KT 10SM FEW014 SCT019 BKN025 06/06 A2887 RMK AO1 WEA: -RA (AS)

More Conditions Fewer Conditions

Pressure 28.87 in
Visibility 10.0 miles
Clouds Few 1400 ft
Scattered Clouds 1900 ft
Mostly Cloudy 2500 ft
Dew Point 43 °F
Humidity 100%
Rainfall 0.28 in
Snow Depth Not available.
UV 0 out of 12
Pollen Not available.
Air Quality Not available.
Flu Activity Not available.
METAR PASD 230316Z 00000KT 10SM FEW014 SCT019 BKN025 06/06 A2887 RMK AO1 WEA: -RA (AS)

More Conditions Fewer Conditions

10-Day Weather Forecast

Almanac

Astronomy

Nov. 22, 2014 Rise Set
Actual Time
Civil Twilight
Nautical Twilight
Astronomical Twilight
Moon
Length of Visible Light
Length of Day
Tomorrow will be .
, % of the Moon is Illuminated

Today's Extremes

State Highs State Lows

Community

WunderPhotos

Upload Photos

1,772,991 photos uploaded!

WunderBlogs® & News

Nearby

Air Quality

  Air Quality AQ Index Pollutant
Not available.

Snow Depth

Station Depth Elevation

Earthquake Activity

City Distance Mag. Time & Date
Minimum magnitude displayed is 2.5.

Coastal Water Temperatures

Place Temperature

Nearby Weather Stations